Time;durP1;ratioP1;P1;durP2;ratioP2;P2;SDS_P1;SDS_P2;PMS_P1;PMS_P2;Temp;Humidity;BMP_temperature;BMP_pressure;BME280_temperature;BME280_humidity;BME280_pressure;Samples;Min_cycle;Max_cycle;Signal;HPM_P1;HPM_P2
2023/01/30 00:00:33;;;;;;;9.20;2.25;;;10.70;72.10;;;;;;4947921;28;20050;-74
2023/01/30 00:02:59;;;;;;;8.32;2.50;;;10.70;72.20;;;;;;4949347;28;20126;-80
2023/01/30 00:05:25;;;;;;;6.80;2.58;;;10.70;72.20;;;;;;4953693;28;20146;-76
2023/01/30 00:07:51;;;;;;;9.30;2.65;;;10.70;72.20;;;;;;4950003;28;20065;-77
2023/01/30 00:10:17;;;;;;;7.78;3.00;;;10.70;72.20;;;;;;4952347;28;20419;-77
2023/01/30 00:12:43;;;;;;;9.60;3.38;;;10.70;72.20;;;;;;4943346;29;20039;-77
2023/01/30 00:15:09;;;;;;;9.07;2.40;;;10.80;72.50;;;;;;4957034;28;20069;-77
2023/01/30 00:17:35;;;;;;;10.85;2.85;;;10.80;72.40;;;;;;4949200;28;20035;-78
2023/01/30 00:20:02;;;;;;;6.43;3.25;;;10.80;72.50;;;;;;4943381;28;20031;-77
2023/01/30 00:22:28;;;;;;;10.45;2.45;;;10.80;72.50;;;;;;4949735;28;20050;-78
2023/01/30 00:24:54;;;;;;;12.25;3.03;;;10.80;72.50;;;;;;4953459;28;20419;-77
2023/01/30 00:27:19;;;;;;;13.45;4.70;;;10.80;72.50;;;;;;4947194;28;20062;-77
2023/01/30 00:29:45;;;;;;;8.48;2.83;;;10.80;72.50;;;;;;4942129;28;20495;-76
2023/01/30 00:32:11;;;;;;;10.48;2.03;;;10.80;72.50;;;;;;4954335;28;20149;-77
2023/01/30 00:34:39;;;;;;;13.00;3.25;;;10.80;72.50;;;;;;4944208;29;20610;-78
2023/01/30 00:37:07;;;;;;;6.75;2.42;;;10.80;72.50;;;;;;4944644;29;20039;-79
2023/01/30 00:39:33;;;;;;;9.73;2.45;;;10.80;72.50;;;;;;4938924;28;20094;-77
2023/01/30 00:47:29;;;;;;;7.85;2.95;;;10.80;72.50;;;;;;4928238;28;20119;-75
2023/01/30 00:49:55;;;;;;;7.28;1.90;;;10.80;72.60;;;;;;4943937;28;20042;-75
2023/01/30 00:52:21;;;;;;;11.25;2.45;;;10.80;72.60;;;;;;4943574;29;20039;-75
2023/01/30 00:54:50;;;;;;;7.05;2.60;;;10.80;72.60;;;;;;4938351;28;20114;-75
2023/01/30 00:57:16;;;;;;;9.57;3.03;;;10.80;72.60;;;;;;4949255;28;20055;-76
2023/01/30 00:59:42;;;;;;;8.43;2.60;;;10.80;72.60;;;;;;4942722;28;20035;-75
2023/01/30 01:02:10;;;;;;;13.13;3.75;;;10.80;72.70;;;;;;4934583;28;20027;-75
2023/01/30 01:04:42;;;;;;;13.18;2.70;;;10.80;72.70;;;;;;4947053;28;20034;-75
2023/01/30 01:07:09;;;;;;;9.50;2.40;;;10.80;72.70;;;;;;4935381;28;20054;-76
2023/01/30 01:09:35;;;;;;;10.75;2.40;;;10.80;72.70;;;;;;4942806;29;20047;-75
2023/01/30 01:12:01;;;;;;;8.38;2.10;;;10.80;72.70;;;;;;4950989;28;20050;-75
2023/01/30 01:14:27;;;;;;;12.20;3.20;;;10.80;72.60;;;;;;4959069;28;20114;-76
2023/01/30 01:16:53;;;;;;;12.10;3.05;;;10.80;72.70;;;;;;4951268;28;20483;-76
2023/01/30 01:19:21;;;;;;;8.40;2.25;;;10.80;72.70;;;;;;4942622;28;20058;-77
2023/01/30 01:21:47;;;;;;;5.38;2.15;;;10.90;72.80;;;;;;4945092;28;20043;-77
2023/01/30 01:24:14;;;;;;;6.20;2.30;;;10.80;72.60;;;;;;4955745;28;20046;-78
2023/01/30 01:26:41;;;;;;;9.25;3.15;;;10.80;72.70;;;;;;4949876;28;20031;-77
2023/01/30 01:29:14;;;;;;;6.47;2.30;;;10.80;72.60;;;;;;4934058;28;20069;-77
2023/01/30 01:31:41;;;;;;;8.20;1.90;;;10.80;72.60;;;;;;4943132;29;20061;-77
2023/01/30 01:34:07;;;;;;;8.20;2.50;;;10.90;72.80;;;;;;4944193;28;20043;-78
2023/01/30 01:36:33;;;;;;;10.77;2.50;;;10.80;72.60;;;;;;4944102;28;20030;-77
2023/01/30 01:38:59;;;;;;;6.93;2.35;;;10.80;72.60;;;;;;4931496;29;20039;-76
2023/01/30 01:41:25;;;;;;;7.93;2.05;;;10.80;72.60;;;;;;4943319;28;20521;-77
2023/01/30 01:44:03;;;;;;;5.78;1.73;;;10.80;72.70;;;;;;4942017;29;20039;-77
2023/01/30 01:46:34;;;;;;;7.55;2.22;;;10.80;72.70;;;;;;4941163;28;20651;-77
2023/01/30 01:49:04;;;;;;;7.30;1.95;;;10.80;72.70;;;;;;4953411;28;20629;-77
2023/01/30 01:51:39;;;;;;;8.13;2.10;;;10.80;72.70;;;;;;4953456;28;20043;-77
2023/01/30 01:54:34;;;;;;;11.32;2.70;;;10.80;72.70;;;;;;4947644;28;20027;-75
2023/01/30 01:57:10;;;;;;;8.77;2.03;;;10.80;72.70;;;;;;4925211;29;20081;-74
2023/01/30 01:59:44;;;;;;;5.65;1.92;;;10.80;72.70;;;;;;4937750;28;20042;-75
2023/01/30 02:02:13;;;;;;;5.53;2.25;;;10.80;72.80;;;;;;4946353;29;20046;-75
2023/01/30 02:07:33;;;;;;;5.47;1.55;;;10.80;72.80;;;;;;4947693;28;20043;-75
2023/01/30 02:10:00;;;;;;;9.15;2.25;;;10.70;72.60;;;;;;4944168;29;20050;-76
2023/01/30 02:12:26;;;;;;;7.82;2.70;;;10.70;72.60;;;;;;4946858;28;20043;-77
2023/01/30 02:14:55;;;;;;;11.65;2.65;;;10.80;72.80;;;;;;4947943;28;20495;-75
2023/01/30 02:17:22;;;;;;;7.43;2.33;;;10.70;72.60;;;;;;4945927;29;21186;-74
2023/01/30 02:19:54;;;;;;;6.72;2.25;;;10.70;72.60;;;;;;4944429;28;20027;-75
2023/01/30 02:22:40;;;;;;;10.18;2.72;;;10.80;72.80;;;;;;4945882;29;20487;-77
2023/01/30 02:25:20;;;;;;;12.18;3.85;;;10.70;72.70;;;;;;4945112;29;20126;-77
2023/01/30 02:28:01;;;;;;;9.38;3.05;;;10.70;72.70;;;;;;4927065;29;20147;-76
2023/01/30 02:30:52;;;;;;;7.47;3.88;;;10.70;72.70;;;;;;4941812;29;20645;-75
2023/01/30 02:33:21;;;;;;;10.40;3.60;;;10.70;72.70;;;;;;4942271;29;20646;-75
2023/01/30 02:36:22;;;;;;;8.60;3.55;;;10.70;72.70;;;;;;4938785;29;20517;-75
2023/01/30 02:39:06;;;;;;;12.27;3.92;;;10.70;72.80;;;;;;4944967;29;20407;-75
2023/01/30 02:41:41;;;;;;;8.20;4.00;;;10.70;72.70;;;;;;4944730;28;20031;-75
2023/01/30 02:44:36;;;;;;;8.57;4.18;;;10.70;72.80;;;;;;4944367;29;20035;-75
2023/01/30 02:47:12;;;;;;;10.73;4.80;;;10.70;72.80;;;;;;4944158;28;20054;-75
2023/01/30 02:49:45;;;;;;;11.77;4.80;;;10.70;72.80;;;;;;4946684;28;20423;-76
2023/01/30 02:52:14;;;;;;;11.82;4.78;;;10.70;72.80;;;;;;4949277;29;20462;-75
2023/01/30 02:54:39;;;;;;;9.75;4.55;;;10.70;72.90;;;;;;4948469;29;20046;-76
2023/01/30 02:57:21;;;;;;;11.70;5.18;;;10.70;72.90;;;;;;4948564;29;20031;-78
2023/01/30 02:59:56;;;;;;;10.73;4.72;;;10.70;73.00;;;;;;4949201;28;20105;-77
2023/01/30 03:02:31;;;;;;;11.55;5.05;;;10.70;73.00;;;;;;4950104;28;20055;-76
2023/01/30 03:05:21;;;;;;;10.82;4.75;;;10.70;73.00;;;;;;4952923;28;20050;-75
2023/01/30 03:08:15;;;;;;;9.48;4.43;;;10.60;72.80;;;;;;4949378;29;20461;-76
2023/01/30 03:10:57;;;;;;;13.15;5.55;;;10.70;73.10;;;;;;4944682;29;20043;-76
2023/01/30 03:13:46;;;;;;;12.05;6.38;;;10.70;73.00;;;;;;4949733;29;20098;-76
2023/01/30 03:16:31;;;;;;;13.02;5.28;;;10.60;72.90;;;;;;4948295;29;20130;-77
2023/01/30 03:19:03;;;;;;;13.20;6.10;;;10.70;73.00;;;;;;4948943;29;20454;-77
2023/01/30 03:21:31;;;;;;;11.95;5.05;;;10.70;73.00;;;;;;4950499;28;20027;-77
2023/01/30 03:23:57;;;;;;;14.07;5.82;;;10.70;73.00;;;;;;4947325;29;20067;-77
2023/01/30 03:26:29;;;;;;;14.18;5.30;;;10.70;73.00;;;;;;4938763;29;20063;-77
2023/01/30 03:28:55;;;;;;;14.05;6.00;;;10.70;73.10;;;;;;4947233;29;20145;-77
2023/01/30 03:31:21;;;;;;;17.20;5.70;;;10.60;72.90;;;;;;4948662;29;20723;-77
2023/01/30 03:33:47;;;;;;;11.05;5.32;;;10.70;73.00;;;;;;4947979;29;20039;-77
2023/01/30 03:36:14;;;;;;;15.90;5.22;;;10.70;73.10;;;;;;4932978;29;20110;-77
2023/01/30 03:38:40;;;;;;;15.50;6.15;;;10.70;73.10;;;;;;4947257;29;20027;-76
2023/01/30 03:41:06;;;;;;;15.10;5.43;;;10.60;72.90;;;;;;4947890;29;20039;-77
2023/01/30 03:43:33;;;;;;;10.57;5.82;;;10.60;72.90;;;;;;4948625;29;20036;-76
2023/01/30 03:46:01;;;;;;;13.93;5.55;;;10.70;73.10;;;;;;4944620;28;20031;-75
2023/01/30 03:48:28;;;;;;;18.35;7.07;;;10.70;73.10;;;;;;4932712;29;20039;-76
2023/01/30 03:50:55;;;;;;;14.90;6.22;;;10.70;73.10;;;;;;4947955;29;20070;-77
2023/01/30 03:53:21;;;;;;;13.15;5.88;;;10.70;73.10;;;;;;4948186;29;20039;-76
2023/01/30 03:55:47;;;;;;;11.93;4.82;;;10.70;73.10;;;;;;4954533;28;20027;-83
2023/01/30 03:58:13;;;;;;;12.05;5.18;;;10.70;73.10;;;;;;4948067;29;20031;-77
2023/01/30 04:00:39;;;;;;;11.50;6.07;;;10.70;73.10;;;;;;4932385;29;20078;-78
2023/01/30 04:03:05;;;;;;;10.98;5.38;;;10.70;73.10;;;;;;4943467;28;20082;-77
2023/01/30 04:05:31;;;;;;;10.13;5.70;;;10.70;73.10;;;;;;4932015;29;20660;-76
2023/01/30 04:08:02;;;;;;;12.23;5.60;;;10.70;73.10;;;;;;4947371;29;20043;-78
2023/01/30 04:10:28;;;;;;;9.45;4.30;;;10.70;73.10;;;;;;4930809;29;20110;-75
2023/01/30 04:12:55;;;;;;;13.35;6.82;;;10.70;73.10;;;;;;4936316;29;20511;-77
2023/01/30 04:15:22;;;;;;;9.82;4.72;;;10.70;73.00;;;;;;4942337;29;20031;-78
2023/01/30 04:18:09;;;;;;;12.30;4.40;;;10.70;72.90;;;;;;4948301;29;20058;-77
2023/01/30 04:20:38;;;;;;;9.32;4.93;;;10.70;72.90;;;;;;4942980;28;20090;-78
2023/01/30 04:23:04;;;;;;;12.90;4.47;;;10.70;72.80;;;;;;4948411;29;20035;-79
2023/01/30 04:25:30;;;;;;;12.23;4.22;;;10.60;72.60;;;;;;4947112;29;20028;-77
2023/01/30 04:27:57;;;;;;;9.07;3.92;;;10.60;72.50;;;;;;4942645;28;20059;-78
2023/01/30 04:30:28;;;;;;;9.20;4.35;;;10.60;72.50;;;;;;4946699;29;20070;-78
2023/01/30 04:33:13;;;;;;;13.90;4.45;;;10.60;72.50;;;;;;4948731;29;20118;-79
2023/01/30 04:35:39;;;;;;;15.57;4.50;;;10.50;72.20;;;;;;4944059;29;20103;-78
2023/01/30 04:38:05;;;;;;;11.10;5.10;;;10.50;72.10;;;;;;4942154;29;20036;-79
2023/01/30 04:40:31;;;;;;;8.07;4.05;;;10.50;72.10;;;;;;4947341;29;20049;-80
2023/01/30 04:42:57;;;;;;;10.00;4.18;;;10.50;72.10;;;;;;4948762;28;20035;-80
2023/01/30 04:45:42;;;;;;;7.18;3.35;;;10.40;71.80;;;;;;4939278;28;20042;-80
2023/01/30 04:48:09;;;;;;;6.07;3.83;;;10.40;71.80;;;;;;4946647;29;20039;-79
2023/01/30 04:50:35;;;;;;;12.50;4.10;;;10.40;71.80;;;;;;4943123;29;20792;-79
2023/01/30 04:53:01;;;;;;;11.43;4.13;;;10.30;71.60;;;;;;4945014;29;20036;-80
2023/01/30 04:55:27;;;;;;;12.30;4.60;;;10.30;71.60;;;;;;4947491;29;20059;-79
2023/01/30 04:57:53;;;;;;;12.98;3.53;;;10.30;71.60;;;;;;4946117;29;20093;-79
2023/01/30 05:00:19;;;;;;;9.30;3.72;;;10.30;71.60;;;;;;4947771;29;20110;-77
2023/01/30 05:02:51;;;;;;;9.20;3.30;;;10.20;71.40;;;;;;4948093;29;20498;-74
2023/01/30 05:05:18;;;;;;;8.82;3.10;;;10.20;71.40;;;;;;4943096;28;20028;-75
2023/01/30 05:07:44;;;;;;;7.30;3.28;;;10.20;71.30;;;;;;4947980;29;20031;-77
2023/01/30 05:10:10;;;;;;;7.55;3.00;;;10.20;71.20;;;;;;4945997;28;20035;-77
2023/01/30 05:12:36;;;;;;;10.68;3.55;;;10.10;71.00;;;;;;4948666;28;20053;-76
2023/01/30 05:15:02;;;;;;;10.77;3.65;;;10.10;71.00;;;;;;4942101;28;20110;-76
2023/01/30 05:17:28;;;;;;;9.40;2.83;;;10.10;71.00;;;;;;4949519;28;20035;-76
2023/01/30 05:19:54;;;;;;;10.52;2.90;;;10.00;70.80;;;;;;4956898;28;20075;-75
2023/01/30 05:22:20;;;;;;;9.63;3.05;;;10.00;70.80;;;;;;4939815;28;20051;-76
2023/01/30 05:24:46;;;;;;;9.10;3.35;;;10.00;70.80;;;;;;4947644;28;20090;-75
2023/01/30 05:27:12;;;;;;;9.10;2.83;;;10.00;70.80;;;;;;4946832;29;20039;-75
2023/01/30 05:29:38;;;;;;;8.00;2.50;;;9.90;70.60;;;;;;4939984;28;20061;-75
2023/01/30 05:32:04;;;;;;;9.70;3.75;;;9.90;70.60;;;;;;4944684;28;20051;-75
2023/01/30 05:34:30;;;;;;;5.15;2.60;;;9.80;70.40;;;;;;4938510;29;20035;-76
2023/01/30 05:36:56;;;;;;;8.32;2.80;;;9.80;70.50;;;;;;4940412;28;20043;-75
2023/01/30 05:39:22;;;;;;;10.40;3.00;;;9.70;70.40;;;;;;4946986;28;20063;-76
2023/01/30 05:41:47;;;;;;;9.50;3.15;;;9.70;70.40;;;;;;4947693;28;20067;-75
2023/01/30 05:44:14;;;;;;;13.07;4.05;;;9.60;70.30;;;;;;4945691;28;20027;-74
2023/01/30 05:46:41;;;;;;;7.70;2.80;;;9.60;70.30;;;;;;4945460;28;20492;-74
2023/01/30 05:49:07;;;;;;;8.98;2.50;;;9.60;70.30;;;;;;4941442;28;20039;-75
2023/01/30 05:51:33;;;;;;;13.82;3.10;;;9.50;70.10;;;;;;4943787;28;20518;-79
2023/01/30 05:53:58;;;;;;;9.35;2.60;;;9.50;70.10;;;;;;4940605;28;20334;-74
2023/01/30 05:56:24;;;;;;;11.82;3.25;;;9.50;70.10;;;;;;4940885;29;20042;-74
2023/01/30 05:58:52;;;;;;;14.27;4.45;;;9.40;69.90;;;;;;4943282;28;20031;-74
2023/01/30 06:01:19;;;;;;;9.55;3.17;;;9.40;70.00;;;;;;4942990;29;20041;-78
2023/01/30 06:03:45;;;;;;;15.38;3.65;;;9.40;70.00;;;;;;4942081;29;20554;-78
2023/01/30 06:06:12;;;;;;;13.63;2.75;;;9.30;69.70;;;;;;4943024;28;20093;-78
2023/01/30 06:08:38;;;;;;;8.68;2.00;;;9.30;69.70;;;;;;4954851;28;20054;-76
2023/01/30 06:11:09;;;;;;;10.77;5.20;;;9.30;69.70;;;;;;4941174;29;20051;-77
2023/01/30 06:13:37;;;;;;;8.38;2.63;;;9.30;70.20;;;;;;4937793;28;20035;-77
2023/01/30 06:16:04;;;;;;;10.90;2.72;;;9.20;69.60;;;;;;4943066;28;20066;-78
2023/01/30 06:18:30;;;;;;;12.95;3.22;;;9.20;69.50;;;;;;4953182;28;20035;-78
2023/01/30 06:20:56;;;;;;;8.10;3.15;;;9.20;70.10;;;;;;4944005;28;20640;-79
2023/01/30 06:23:22;;;;;;;8.82;2.85;;;9.20;69.50;;;;;;4939690;28;20067;-79
2023/01/30 06:25:49;;;;;;;9.65;2.67;;;9.10;69.30;;;;;;4943373;28;20027;-77
2023/01/30 06:28:15;;;;;;;7.70;2.40;;;9.10;69.30;;;;;;4943994;28;20054;-82
2023/01/30 06:30:42;;;;;;;9.68;2.33;;;9.00;69.10;;;;;;4949669;28;20039;-90
2023/01/30 06:33:08;;;;;;;12.50;2.90;;;9.00;69.10;;;;;;4951655;28;20039;-85
2023/01/30 06:35:37;;;;;;;9.40;2.78;;;9.00;69.00;;;;;;4964220;28;20486;-84
2023/01/30 06:38:03;;;;;;;14.52;3.05;;;9.00;69.00;;;;;;4960729;28;20059;-86
2023/01/30 06:40:29;;;;;;;7.80;2.47;;;9.00;68.90;;;;;;4957067;28;20122;-84
2023/01/30 06:42:55;;;;;;;6.28;2.17;;;8.90;68.70;;;;;;4950119;28;20070;-87
2023/01/30 06:45:21;;;;;;;13.60;3.17;;;8.90;68.70;;;;;;4942511;28;20073;-87
2023/01/30 06:47:49;;;;;;;15.68;3.72;;;8.90;68.70;;;;;;4949471;28;20042;-83
2023/01/30 06:50:17;;;;;;;8.05;2.33;;;8.90;68.60;;;;;;4960760;28;20029;-92
2023/01/30 06:52:45;;;;;;;16.73;2.90;;;8.90;68.50;;;;;;4964789;28;20070;-93
2023/01/30 06:55:14;;;;;;;9.90;3.05;;;8.90;68.70;;;;;;4967861;28;20107;-91
2023/01/30 06:57:41;;;;;;;15.38;2.90;;;8.90;69.00;;;;;;4950713;29;20320;-93
2023/01/30 07:00:13;;;;;;;9.02;3.10;;;9.00;69.10;;;;;;4969722;28;20039;-88
2023/01/30 07:02:39;;;;;;;20.37;2.90;;;9.00;69.20;;;;;;4958420;28;20042;-84
2023/01/30 07:05:06;;;;;;;14.05;3.40;;;9.10;69.30;;;;;;4957036;28;20268;-80
2023/01/30 07:07:33;;;;;;;9.32;2.33;;;9.20;69.50;;;;;;4955008;28;20027;-84
2023/01/30 07:09:59;;;;;;;13.05;3.40;;;9.30;69.70;;;;;;4959494;28;20023;-79
2023/01/30 07:12:25;;;;;;;14.32;3.58;;;9.30;69.60;;;;;;4951147;28;20090;-79
2023/01/30 07:14:52;;;;;;;9.60;3.15;;;9.30;69.60;;;;;;4951781;28;20031;-78
2023/01/30 07:17:19;;;;;;;10.30;2.72;;;9.30;69.40;;;;;;4945243;28;20063;-79
2023/01/30 07:19:45;;;;;;;14.75;3.63;;;9.30;69.30;;;;;;4948033;28;20108;-82
2023/01/30 07:22:12;;;;;;;8.80;2.60;;;9.30;69.30;;;;;;4928883;29;20131;-79
2023/01/30 07:24:44;;;;;;;10.30;3.17;;;9.30;69.20;;;;;;4945218;28;20085;-83
2023/01/30 07:27:11;;;;;;;12.63;2.50;;;9.30;69.20;;;;;;4945475;29;20031;-83
2023/01/30 07:29:38;;;;;;;12.02;2.67;;;9.30;69.20;;;;;;4956967;28;20051;-83
2023/01/30 07:32:05;;;;;;;10.35;2.38;;;9.20;69.00;;;;;;4945106;29;20047;-83
2023/01/30 07:34:31;;;;;;;11.75;3.00;;;9.20;68.90;;;;;;4943112;29;20027;-83
2023/01/30 07:36:57;;;;;;;10.27;2.55;;;9.20;68.90;;;;;;4945805;28;20045;-83
2023/01/30 07:39:23;;;;;;;12.45;2.50;;;9.10;68.60;;;;;;4940197;29;20119;-83
2023/01/30 07:41:49;;;;;;;16.33;3.78;;;9.20;68.80;;;;;;4943706;29;20059;-82
2023/01/30 07:44:16;;;;;;;8.13;2.83;;;9.10;69.10;;;;;;4944691;28;20035;-82
2023/01/30 07:46:42;;;;;;;12.35;3.05;;;9.00;68.90;;;;;;4941694;28;20050;-83
2023/01/30 07:49:09;;;;;;;14.23;2.47;;;9.00;68.40;;;;;;4934918;28;20039;-83
2023/01/30 07:51:35;;;;;;;8.18;3.03;;;9.00;68.30;;;;;;4960836;28;20098;-82
2023/01/30 07:54:02;;;;;;;8.27;2.63;;;9.00;68.40;;;;;;4951149;28;20035;-79
2023/01/30 07:56:29;;;;;;;8.10;2.10;;;8.90;68.20;;;;;;4946894;28;20046;-79
2023/01/30 07:58:55;;;;;;;10.43;2.85;;;8.90;68.10;;;;;;4944372;28;20039;-79
2023/01/30 08:01:22;;;;;;;9.60;2.75;;;8.90;68.10;;;;;;4949278;28;20035;-79
2023/01/30 08:03:48;;;;;;;9.35;2.40;;;8.90;68.10;;;;;;4934854;28;20047;-83
2023/01/30 08:06:15;;;;;;;14.35;3.08;;;8.80;67.80;;;;;;4942897;29;20035;-84
2023/01/30 08:08:41;;;;;;;11.02;3.25;;;8.80;67.80;;;;;;4944337;28;20490;-82
2023/01/30 08:11:07;;;;;;;14.32;3.05;;;8.80;67.80;;;;;;4938300;28;20070;-79
2023/01/30 08:13:34;;;;;;;12.13;3.03;;;8.80;67.70;;;;;;4945917;28;20059;-78
2023/01/30 08:16:04;;;;;;;12.07;2.50;;;8.80;67.70;;;;;;4943238;28;20186;-79
2023/01/30 08:18:31;;;;;;;8.82;2.70;;;8.80;67.60;;;;;;4945427;28;20031;-77
2023/01/30 08:21:06;;;;;;;11.63;2.83;;;8.80;67.60;;;;;;4943709;28;20633;-78
2023/01/30 08:23:32;;;;;;;8.95;3.03;;;8.70;67.40;;;;;;4938692;28;20039;-77
2023/01/30 08:26:01;;;;;;;11.82;3.38;;;8.80;67.60;;;;;;4954663;28;20046;-76
2023/01/30 08:28:28;;;;;;;13.98;2.83;;;8.80;67.50;;;;;;4938584;28;20059;-77
2023/01/30 08:30:54;;;;;;;11.30;3.47;;;8.80;67.40;;;;;;4949570;28;20452;-77
2023/01/30 08:33:21;;;;;;;10.55;2.80;;;8.80;67.30;;;;;;4944313;29;20041;-77
2023/01/30 08:35:47;;;;;;;13.27;3.42;;;8.80;67.30;;;;;;4945742;28;20062;-76
2023/01/30 08:38:13;;;;;;;13.25;3.38;;;8.80;67.20;;;;;;4933798;28;20050;-77
2023/01/30 08:40:40;;;;;;;12.38;3.35;;;8.80;67.10;;;;;;4944244;29;20047;-75
2023/01/30 08:43:06;;;;;;;10.48;2.75;;;8.80;67.00;;;;;;4938246;28;20038;-75
2023/01/30 08:45:32;;;;;;;8.65;3.08;;;8.80;66.90;;;;;;4946184;28;20038;-77
2023/01/30 08:48:00;;;;;;;10.25;3.13;;;8.90;67.00;;;;;;4940748;28;20522;-76
2023/01/30 08:50:26;;;;;;;7.22;2.53;;;8.90;66.90;;;;;;4945450;28;20534;-77
2023/01/30 08:52:52;;;;;;;14.88;2.97;;;9.00;67.00;;;;;;4964904;28;20034;-76
2023/01/30 08:55:18;;;;;;;9.98;3.10;;;9.00;66.90;;;;;;4949082;28;20126;-76
2023/01/30 08:57:44;;;;;;;12.38;2.58;;;9.00;66.80;;;;;;4944058;28;20043;-76
2023/01/30 09:00:11;;;;;;;9.00;2.72;;;9.00;66.70;;;;;;4943616;28;20085;-77
2023/01/30 09:02:37;;;;;;;13.43;2.95;;;9.10;66.80;;;;;;4944809;28;20031;-79
2023/01/30 09:05:04;;;;;;;13.85;2.80;;;9.10;66.70;;;;;;4951756;28;20109;-80
2023/01/30 09:07:30;;;;;;;8.60;3.33;;;9.20;66.70;;;;;;4945504;28;20038;-79
2023/01/30 09:09:56;;;;;;;12.02;3.28;;;9.20;66.60;;;;;;4941225;28;20045;-77
2023/01/30 09:12:23;;;;;;;10.73;3.58;;;9.30;66.60;;;;;;4941349;29;20734;-79
2023/01/30 09:14:49;;;;;;;8.70;2.63;;;9.30;66.50;;;;;;4945382;28;20039;-79
2023/01/30 09:17:14;;;;;;;18.08;3.47;;;9.40;66.60;;;;;;4938192;28;20361;-79
2023/01/30 09:19:40;;;;;;;13.60;3.83;;;9.40;66.50;;;;;;4944319;28;20073;-79
2023/01/30 09:22:06;;;;;;;10.88;3.05;;;9.40;66.40;;;;;;4943755;29;20027;-79
2023/01/30 09:24:32;;;;;;;13.35;3.05;;;9.40;66.30;;;;;;4941854;29;20487;-79
2023/01/30 09:26:59;;;;;;;7.85;3.05;;;9.40;66.30;;;;;;4945106;28;20853;-81
2023/01/30 09:29:26;;;;;;;17.23;4.38;;;9.40;66.20;;;;;;4936047;28;20137;-81
2023/01/30 09:31:55;;;;;;;11.52;4.60;;;9.50;66.30;;;;;;4935154;28;20039;-80
2023/01/30 09:34:26;;;;;;;9.88;3.28;;;9.50;66.20;;;;;;4944664;28;20550;-78
2023/01/30 09:36:59;;;;;;;11.65;2.92;;;9.60;66.20;;;;;;4941100;29;20043;-78
2023/01/30 09:39:26;;;;;;;11.70;2.85;;;9.70;66.30;;;;;;4944022;28;20035;-79
2023/01/30 09:42:22;;;;;;;11.35;3.88;;;9.70;66.00;;;;;;4933773;28;20111;-79
2023/01/30 09:45:19;;;;;;;9.23;2.97;;;9.80;66.00;;;;;;4932997;29;20046;-78
2023/01/30 09:48:16;;;;;;;16.48;3.03;;;9.80;65.80;;;;;;4938920;28;20035;-79
2023/01/30 09:50:42;;;;;;;8.55;2.92;;;9.90;65.80;;;;;;4942935;28;20047;-79
2023/01/30 09:53:13;;;;;;;11.95;2.60;;;9.90;65.80;;;;;;4940510;28;20027;-78
2023/01/30 09:55:41;;;;;;;11.10;2.88;;;9.90;65.70;;;;;;4951157;28;20031;-81
2023/01/30 09:58:17;;;;;;;11.85;3.45;;;9.90;65.70;;;;;;4944716;28;20533;-80
2023/01/30 10:00:45;;;;;;;9.20;4.00;;;9.80;65.60;;;;;;4946659;28;20118;-80
2023/01/30 10:03:22;;;;;;;9.55;2.75;;;9.80;65.60;;;;;;4944385;28;20582;-77
2023/01/30 10:05:51;;;;;;;11.98;3.30;;;9.80;65.60;;;;;;4926547;29;20550;-76
2023/01/30 10:08:32;;;;;;;10.57;3.03;;;9.80;65.60;;;;;;4944845;28;20041;-77
2023/01/30 10:11:22;;;;;;;10.77;3.03;;;9.80;65.60;;;;;;4939826;28;20130;-78
2023/01/30 10:14:12;;;;;;;8.80;2.35;;;9.90;65.70;;;;;;4941666;29;20486;-80
2023/01/30 10:17:13;;;;;;;11.35;3.50;;;9.80;65.50;;;;;;4946918;29;20160;-78
2023/01/30 10:20:02;;;;;;;7.45;2.83;;;9.80;65.50;;;;;;4934458;29;20442;-80
2023/01/30 10:22:37;;;;;;;9.38;3.08;;;9.90;65.60;;;;;;4945009;28;20035;-78
2023/01/30 10:25:46;;;;;;;11.32;2.75;;;9.80;65.40;;;;;;4946740;28;20066;-77
2023/01/30 10:29:01;;;;;;;11.65;4.07;;;9.90;65.40;;;;;;4920540;28;20340;-78
2023/01/30 10:31:33;;;;;;;10.95;2.90;;;9.90;65.40;;;;;;4937215;29;20063;-78
2023/01/30 10:34:08;;;;;;;7.20;3.00;;;9.90;65.40;;;;;;4945586;29;20035;-77
2023/01/30 10:36:57;;;;;;;9.10;3.72;;;9.90;65.30;;;;;;4929995;29;20031;-78
2023/01/30 10:39:26;;;;;;;11.50;3.05;;;9.90;65.20;;;;;;4935741;29;20282;-77
2023/01/30 10:42:11;;;;;;;11.85;3.72;;;9.90;65.20;;;;;;4948990;28;20495;-77
2023/01/30 10:44:40;;;;;;;12.85;2.92;;;9.90;65.10;;;;;;4946567;28;20072;-77
2023/01/30 10:47:31;;;;;;;8.05;2.72;;;10.00;65.40;;;;;;4939954;28;20042;-78
2023/01/30 10:50:09;;;;;;;13.43;2.92;;;9.90;65.10;;;;;;4944687;28;20134;-77
2023/01/30 10:52:46;;;;;;;9.00;3.25;;;9.90;65.10;;;;;;4955543;28;20435;-76
2023/01/30 10:55:30;;;;;;;9.70;2.92;;;9.90;65.10;;;;;;4934402;28;20035;-76
2023/01/30 10:58:29;;;;;;;12.15;2.72;;;9.90;65.10;;;;;;4947709;28;20039;-76
2023/01/30 11:01:13;;;;;;;9.55;2.75;;;10.00;65.20;;;;;;4959392;28;20127;-75
2023/01/30 11:03:49;;;;;;;12.68;2.90;;;9.90;65.00;;;;;;4941335;28;20093;-76
2023/01/30 11:06:23;;;;;;;9.98;2.63;;;10.00;65.10;;;;;;4943915;29;20058;-76
2023/01/30 11:08:49;;;;;;;11.15;3.47;;;10.00;65.00;;;;;;4945972;29;20593;-75
2023/01/30 11:11:32;;;;;;;11.23;2.85;;;10.00;65.00;;;;;;4943638;29;20498;-76
2023/01/30 11:14:05;;;;;;;18.10;5.20;;;10.00;64.90;;;;;;4943009;28;20427;-76
2023/01/30 11:16:42;;;;;;;12.48;3.33;;;10.00;64.90;;;;;;4946873;28;20042;-76
2023/01/30 11:19:08;;;;;;;10.88;3.33;;;9.90;64.80;;;;;;4944824;28;20046;-75
2023/01/30 11:21:35;;;;;;;8.60;2.72;;;10.00;64.90;;;;;;4937682;28;20031;-75
2023/01/30 11:24:18;;;;;;;10.52;3.03;;;9.90;64.70;;;;;;4942973;29;20043;-77
2023/01/30 11:26:48;;;;;;;14.60;2.92;;;10.00;64.90;;;;;;4945063;28;20039;-78
2023/01/30 11:29:32;;;;;;;7.13;3.00;;;10.00;64.90;;;;;;4938065;28;20109;-78
2023/01/30 11:32:25;;;;;;;12.10;2.70;;;10.00;64.80;;;;;;4940655;29;20051;-78
2023/01/30 11:35:07;;;;;;;8.18;2.50;;;10.00;65.20;;;;;;4943652;29;20050;-81
2023/01/30 11:37:33;;;;;;;10.70;2.97;;;10.00;64.70;;;;;;4945251;29;20035;-82
2023/01/30 11:40:06;;;;;;;9.43;2.75;;;10.10;64.80;;;;;;4943629;29;20278;-81
2023/01/30 11:42:32;;;;;;;10.50;3.45;;;10.10;64.70;;;;;;4935497;29;20035;-80
2023/01/30 11:44:59;;;;;;;13.63;3.15;;;10.10;64.60;;;;;;4941340;28;20451;-78
2023/01/30 11:47:28;;;;;;;8.90;3.70;;;10.20;64.70;;;;;;4936762;28;20046;-82
2023/01/30 11:49:57;;;;;;;10.77;2.60;;;10.20;64.60;;;;;;4962131;28;20291;-80
2023/01/30 11:52:28;;;;;;;12.25;3.03;;;10.30;64.70;;;;;;4957680;28;20046;-78
2023/01/30 11:55:07;;;;;;;10.02;3.25;;;10.30;64.70;;;;;;4949388;28;20034;-79
2023/01/30 11:57:43;;;;;;;16.55;4.40;;;10.50;65.00;;;;;;4944831;28;20027;-78
2023/01/30 12:00:45;;;;;;;12.70;3.08;;;10.60;65.10;;;;;;4942595;28;20074;-81
2023/01/30 12:03:18;;;;;;;10.75;2.63;;;10.60;65.30;;;;;;4950759;28;20043;-78
2023/01/30 12:05:45;;;;;;;;;;;10.70;65.30;;;;;;4945855;28;20043;-79
2023/01/30 12:08:16;;;;;;;14.23;3.45;;;10.80;65.40;;;;;;4953857;28;20389;-79
2023/01/30 12:10:44;;;;;;;7.93;2.45;;;10.80;65.30;;;;;;4949236;28;20122;-77
2023/01/30 12:13:42;;;;;;;7.47;3.25;;;10.80;65.30;;;;;;4944421;28;20173;-78
2023/01/30 12:16:40;;;;;;;11.13;3.15;;;10.90;65.50;;;;;;4963714;28;20045;-77
2023/01/30 12:19:14;;;;;;;10.55;3.38;;;10.90;65.60;;;;;;4965336;28;20082;-78
2023/01/30 12:21:51;;;;;;;8.77;2.97;;;10.90;65.60;;;;;;4948860;28;20031;-78
2023/01/30 12:24:57;;;;;;;9.32;3.58;;;11.00;65.70;;;;;;4963496;28;20066;-78
2023/01/30 12:27:53;;;;;;;12.60;3.63;;;11.00;65.70;;;;;;4951095;28;20046;-78
2023/01/30 12:30:32;;;;;;;10.85;3.15;;;11.00;65.60;;;;;;4943879;28;20043;-77
2023/01/30 12:33:01;;;;;;;11.82;4.18;;;11.00;65.60;;;;;;4945318;28;20047;-78
2023/01/30 12:35:54;;;;;;;12.25;3.05;;;11.00;65.50;;;;;;4935547;29;20066;-80
2023/01/30 12:38:33;;;;;;;8.18;4.18;;;11.10;65.60;;;;;;4944076;28;20031;-80
2023/01/30 12:41:15;;;;;;;13.45;2.60;;;11.10;65.60;;;;;;4943623;28;20071;-81
2023/01/30 12:43:52;;;;;;;9.65;2.90;;;11.10;65.50;;;;;;4947793;28;20062;-80
2023/01/30 12:46:32;;;;;;;14.20;2.85;;;11.10;65.50;;;;;;4939609;28;20057;-80
2023/01/30 12:49:16;;;;;;;8.75;2.90;;;11.10;65.30;;;;;;4954210;28;20129;-80
2023/01/30 12:51:54;;;;;;;9.23;3.00;;;11.20;65.40;;;;;;4930551;28;20419;-79
2023/01/30 12:54:49;;;;;;;7.80;2.72;;;11.20;65.30;;;;;;4931535;28;20161;-79
2023/01/30 12:57:25;;;;;;;8.27;3.17;;;11.20;65.20;;;;;;4943753;28;20479;-79
2023/01/30 13:00:02;;;;;;;11.18;3.63;;;11.30;65.20;;;;;;4943655;28;20106;-79
2023/01/30 13:02:50;;;;;;;8.75;2.53;;;11.30;65.10;;;;;;4933452;28;20328;-79
2023/01/30 13:05:42;;;;;;;8.38;3.38;;;11.30;65.00;;;;;;4950417;28;20032;-79
2023/01/30 13:08:15;;;;;;;9.07;2.75;;;11.30;65.00;;;;;;4932699;28;20051;-80
2023/01/30 13:10:50;;;;;;;10.38;3.28;;;11.40;65.10;;;;;;4927575;28;20566;-80
2023/01/30 13:13:21;;;;;;;7.10;3.00;;;11.40;65.00;;;;;;4953770;28;20035;-80
2023/01/30 13:16:15;;;;;;;6.00;2.47;;;11.40;65.00;;;;;;4944960;28;20035;-77